Latest Weather Observations for Gold Coast Seaway

IDQ60901

Issued at 7:31 am EST Sunday 24 September 2017 (issued every 10 minutes, with the page automatically refreshed every 10 minutes)

About weather observations | Map of Brisbane area stations | Latest observations for Brisbane area | Other Formats
Station Details ID: 040764 Name: GOLD COAST SEAWAY Lat: -27.94 Lon: 153.43 Height: 2.98 m
Data from the previous 72 hours. | See also: Recent months at Gold Coast Seaway
Date/Time
EST
Temp
°C
App
Temp
°C
Dew
Point
°C
Rel
Hum
%
Delta-T
°C
Wind Press
QNH
hPa
Press
MSL
hPa
Rain since
9am
mm
Dir  Spd
km/h
Gust
km/h
Spd
kts
Gust
kts
24/07:30am 20.8 19.6 17.4 81 2.1 NNW 20 26 11 14 1013.1 1013.1 0.0
24/07:00am 20.2 19.3 17.8 86 1.5 NNW 19 26 10 14 1013.0 1013.0 0.0
24/06:30am 19.4 18.5 17.7 90 1.0 NW 19 26 10 14 1012.8 1012.8 0.0
24/06:00am 18.9 18.3 17.6 92 0.8 NNW 17 24 9 13 1012.5 1012.5 0.0
24/05:30am 19.0 18.3 17.3 90 1.0 NNW 17 26 9 14 1012.2 1012.2 0.0
24/05:00am 18.9 17.7 17.0 89 1.1 NNW 19 26 10 14 1012.0 1012.0 0.0
24/04:30am 19.0 17.8 17.0 88 1.2 NNW 19 26 10 14 1011.7 1011.7 0.0
24/04:00am 19.2 18.4 17.2 88 1.2 NNW 17 22 9 12 1011.7 1011.7 0.0
24/03:30am 19.3 18.4 17.8 91 0.9 NNW 19 26 10 14 1011.7 1011.7 0.0
24/03:00am 19.4 18.9 17.7 90 1.0 NNW 17 26 9 14 1011.8 1011.8 0.0
24/02:30am 19.3 19.5 17.6 90 1.0 NNW 13 20 7 11 1012.0 1012.0 0.0
24/02:00am 19.2 19.2 17.3 89 1.2 NNW 13 17 7 9 1012.2 1012.2 0.0
24/01:30am 19.5 20.0 17.5 88 1.2 NNW 11 15 6 8 1012.4 1012.4 0.0
24/01:00am 19.9 19.2 17.3 85 1.6 NW 17 19 9 10 1012.6 1012.6 0.0
24/12:30am 20.5 19.6 17.7 84 1.7 NNW 19 28 10 15 1012.7 1012.7 0.0
24/12:00am 20.8 19.6 17.4 81 2.1 NNW 20 28 11 15 1013.1 1013.1 0.0
 
Date/Time
EST
Temp
°C
App
Temp
°C
Dew
Point
°C
Rel
Hum
%
Delta-T
°C
Wind Press
QNH
hPa
Press
MSL
hPa
Rain since
9am
mm
Dir  Spd
km/h
Gust
km/h
Spd
kts
Gust
kts
23/11:30pm 20.6 20.5 17.8 84 1.7 NNW 15 22 8 12 1013.2 1013.2 0.0
23/11:00pm 20.6 20.9 18.0 85 1.6 NNW 13 19 7 10 1013.3 1013.3 0.0
23/10:30pm 20.5 20.6 18.3 87 1.4 NNW 15 19 8 10 1013.5 1013.5 0.0
23/10:00pm 19.8 20.5 18.8 94 0.6 NNW 13 17 7 9 1013.7 1013.7 0.0
23/09:30pm 18.9 19.9 18.7 99 0.1 NW 11 11 6 6 1013.9 1013.9 0.0
23/09:00pm 18.4 21.3 18.1 98 0.2 CALM 0 0 0 0 1014.0 1014.0 0.0
23/08:30pm 19.0 21.9 18.3 96 0.4 CALM 0 0 0 0 1014.0 1014.0 0.0
23/08:00pm 19.0 21.5 17.3 90 1.0 CALM 0 0 0 0 1013.9 1013.9 0.0
23/07:30pm 20.2 21.6 18.7 91 0.9 NNW 9 13 5 7 1013.5 1013.5 0.0
23/07:00pm 20.6 22.2 19.1 91 0.9 N 9 15 5 8 1013.1 1013.1 0.0
23/06:30pm 20.9 21.6 19.7 93 0.8 N 15 19 8 10 1012.9 1012.9 0.0
23/06:00pm 21.0 20.2 19.3 90 1.1 N 22 26 12 14 1012.5 1012.5 0.0
23/05:30pm 21.3 19.7 19.2 88 1.3 N 26 32 14 17 1012.4 1012.4 0.0
23/05:00pm 21.7 19.7 19.1 85 1.6 N 28 33 15 18 1012.3 1012.3 0.0
23/04:30pm 22.0 19.3 19.2 84 1.8 N 32 37 17 20 1012.1 1012.1 0.0
23/04:00pm 22.4 19.6 19.0 81 2.2 N 32 39 17 21 1011.8 1011.8 0.0
23/03:30pm 22.9 20.4 18.9 78 2.5 N 30 35 16 19 1011.7 1011.7 0.0
23/03:00pm 23.4 21.0 19.1 77 2.7 N 30 37 16 20 1011.7 1011.7 0.0
23/02:30pm 24.8 22.6 18.7 69 3.9 NNE 28 32 15 17 1011.9 1011.9 0.0
23/02:00pm 25.4 21.8 16.3 57 5.6 N 30 37 16 20 1012.2 1012.2 0.0
23/01:30pm 25.3 21.5 16.7 59 5.3 N 32 39 17 21 1012.5 1012.5 0.0
23/01:00pm 25.1 21.8 17.1 61 5.0 N 30 35 16 19 1012.8 1012.8 0.0
23/12:30pm 25.0 21.5 17.5 63 4.7 N 32 39 17 21 1013.1 1013.1 0.0
23/12:00pm 24.9 21.4 16.6 60 5.1 N 30 35 16 19 1013.5 1013.5 0.0
23/11:30am 26.5 23.6 16.1 52 6.4 N 26 33 14 18 1014.1 1014.1 0.0
23/11:00am 26.1 23.6 16.1 54 6.1 NNW 24 35 13 19 1014.5 1014.5 0.0
23/10:30am 25.3 23.6 16.2 57 5.6 NNW 20 28 11 15 1015.0 1015.0 0.0
23/10:00am 24.6 21.5 14.4 53 6.0 NNW 24 32 13 17 1015.6 1015.6 0.0
23/09:30am 23.8 21.0 14.2 55 5.7 NNW 22 33 12 18 1016.0 1016.0 0.0
23/09:00am 23.2 20.4 15.3 61 4.7 NW 24 30 13 16 1016.2 1016.2 -
23/08:30am 22.4 20.0 15.3 64 4.2 NW 22 32 12 17 1016.6 1016.6 -
23/08:00am 21.2 19.5 14.6 66 3.9 NNW 17 22 9 12 1016.6 1016.6 -
23/07:30am 19.9 18.6 14.9 73 2.9 NNW 15 20 8 11 1016.3 1016.3 -
23/07:00am 18.6 17.1 14.1 75 2.6 N 15 19 8 10 1016.0 1016.0 -
23/06:30am 18.0 16.8 13.9 77 2.3 N 13 17 7 9 1015.7 1015.7 -
23/06:00am 17.6 16.3 14.7 83 1.7 N 15 17 8 9 1015.4 1015.4 -
23/05:30am 18.0 17.0 14.7 81 1.9 NNW 13 15 7 8 1015.1 1015.1 -
23/05:00am 18.2 16.5 14.7 80 2.0 N 17 20 9 11 1015.3 1015.3 -
23/04:30am 18.9 16.8 12.4 66 3.6 WNW 15 17 8 9 1015.0 1015.0 -
23/04:00am 18.7 16.8 13.1 70 3.2 W 15 17 8 9 1014.6 1014.6 -
23/03:30am 18.2 17.0 13.9 76 2.5 WNW 13 17 7 9 1014.9 1014.9 -
23/03:00am 18.1 16.7 14.6 80 2.0 NNW 15 19 8 10 1014.9 1014.9 -
23/02:30am 19.1 17.5 12.8 67 3.5 NNW 13 19 7 10 1014.9 1014.9 -
23/02:00am 19.6 17.9 12.6 64 3.9 NW 13 17 7 9 1014.9 1014.9 -
23/01:30am 19.1 17.5 12.8 67 3.5 WNW 13 15 7 8 1015.3 1015.3 -
23/01:00am 19.4 17.5 13.1 67 3.6 WNW 15 19 8 10 1015.5 1015.5 -
23/12:30am 18.9 18.5 14.0 73 2.8 NNW 9 11 5 6 1015.9 1015.9 -
23/12:00am 19.8 18.4 14.6 72 3.0 NW 15 17 8 9 1015.9 1015.9 -
 
Date/Time
EST
Temp
°C
App
Temp
°C
Dew
Point
°C
Rel
Hum
%
Delta-T
°C
Wind Press
QNH
hPa
Press
MSL
hPa
Rain since
9am
mm
Dir  Spd
km/h
Gust
km/h
Spd
kts
Gust
kts
22/11:30pm 20.1 18.5 13.8 67 3.6 N 15 20 8 11 1016.2 1016.2 -
22/11:00pm 20.0 18.8 15.0 73 2.9 WNW 15 17 8 9 1016.1 1016.1 -
22/10:30pm 20.1 19.3 15.1 73 2.9 WNW 13 17 7 9 1016.2 1016.2 2.6
22/10:00pm 20.5 18.8 14.6 69 3.4 NW 17 19 9 10 1016.2 1016.2 2.6
22/09:30pm 20.3 17.4 14.0 67 3.6 NW 22 32 12 17 1015.9 1015.9 2.6
22/09:00pm 21.1 16.3 12.8 59 4.7 WNW 30 35 16 19 1015.7 1015.7 2.6
22/08:30pm 20.9 16.7 13.4 62 4.3 NNE 28 35 15 19 1014.8 1014.8 2.6
22/08:00pm 20.1 12.9 13.6 66 3.7 NE 44 50 24 27 1014.6 1014.6 2.6
22/07:49pm 19.7 17.3 16.5 82 1.9 NNE 24 39 13 21 1016.3 1016.3 2.2
22/07:30pm 21.1 21.2 19.2 89 1.2 NW 17 22 9 12 1017.9 1017.9 1.2
22/07:00pm 21.6 23.5 20.6 94 0.6 NW 11 13 6 7 1017.7 1017.7 0.2
22/06:30pm 21.3 23.9 20.1 93 0.8 ESE 6 11 3 6 1016.5 1016.5 0.0
22/06:00pm 21.5 22.6 19.6 89 1.2 NNE 13 17 7 9 1015.4 1015.4 0.0
22/05:30pm 22.1 20.7 18.9 82 2.0 N 24 32 13 17 1014.6 1014.6 0.0
22/05:00pm 22.3 20.5 18.7 80 2.3 NNW 26 33 14 18 1014.7 1014.7 0.0
22/04:30pm 22.0 19.1 19.2 84 1.8 N 33 41 18 22 1014.7 1014.7 0.0
22/04:00pm 22.6 19.2 19.0 80 2.3 N 35 44 19 24 1014.0 1014.0 0.0
22/03:30pm 23.1 19.1 18.6 76 2.8 N 37 46 20 25 1013.8 1013.8 0.0
22/03:00pm 23.5 20.1 18.2 72 3.3 NNE 33 39 18 21 1013.9 1013.9 0.0
22/02:30pm 24.0 20.2 18.2 70 3.6 NNE 35 41 19 22 1014.0 1014.0 0.0
22/02:00pm 24.0 20.4 17.7 68 3.9 NNE 33 39 18 21 1014.4 1014.4 0.0
22/01:30pm 25.2 21.8 17.7 63 4.7 NNE 32 39 17 21 1014.6 1014.6 0.0
22/01:00pm 25.3 21.9 17.7 62 4.8 NNE 32 35 17 19 1015.0 1015.0 0.0
22/12:30pm 25.7 21.6 16.0 55 5.9 NNE 32 35 17 19 1015.4 1015.4 0.0
22/12:00pm 25.8 22.1 16.1 55 5.9 NNE 30 35 16 19 1016.0 1016.0 0.0
22/11:30am 25.6 21.7 16.5 57 5.6 NNE 32 35 17 19 1016.6 1016.6 0.0
22/11:00am 25.4 21.1 15.4 54 6.0 N 32 37 17 20 1017.1 1017.1 0.0
22/10:30am 25.2 21.6 15.2 54 6.0 N 28 35 15 19 1017.6 1017.6 0.0
22/10:00am 25.5 22.0 15.5 54 6.0 N 28 37 15 20 1017.9 1017.9 0.0
22/09:30am 24.6 22.2 15.5 57 5.5 N 22 33 12 18 1018.3 1018.3 0.0
22/09:00am 23.4 21.2 14.9 59 5.0 NNW 20 32 11 17 1018.6 1018.6 0.0
22/08:30am 23.0 22.1 16.8 68 3.8 NNW 17 26 9 14 1018.8 1018.8 0.0
22/08:00am 21.9 20.4 17.7 77 2.6 NNW 22 32 12 17 1018.8 1018.8 0.0
22/07:30am 21.0 20.7 18.2 84 1.7 NNW 17 24 9 13 1018.8 1018.8 0.0
22/07:00am 20.0 21.7 19.3 96 0.4 NNW 9 13 5 7 1018.7 1018.7 0.0
22/06:30am 19.4 20.7 19.2 99 0.1 NW 11 17 6 9 1018.3 1018.3 0.0
22/06:00am 18.8 19.8 18.6 99 0.1 NW 11 13 6 7 1017.8 1017.8 0.0
22/05:30am 18.4 19.4 17.8 96 0.4 NNW 9 9 5 5 1017.6 1017.6 0.0
22/05:00am 18.9 20.3 17.7 93 0.7 NNW 7 9 4 5 1017.4 1017.4 0.0
22/04:30am 19.2 20.3 17.2 88 1.2 NNW 7 9 4 5 1017.1 1017.1 0.0
22/04:00am 19.8 21.1 17.6 87 1.3 NNW 7 9 4 5 1016.8 1016.8 0.0
22/03:30am 20.0 21.4 17.8 87 1.4 NW 7 9 4 5 1016.9 1016.9 0.0
22/03:00am 20.1 21.6 17.5 85 1.6 NW 6 7 3 4 1016.9 1016.9 0.0
22/02:30am 20.1 21.5 17.7 86 1.5 NW 7 9 4 5 1017.0 1017.0 0.0
22/02:00am 20.1 21.5 17.3 84 1.7 NW 6 7 3 4 1017.3 1017.3 0.0
22/01:30am 20.1 21.4 17.5 85 1.6 NW 7 9 4 5 1017.6 1017.6 0.0
22/01:00am 20.2 21.0 17.4 84 1.7 N 9 9 5 5 1017.7 1017.7 0.0
22/12:30am 20.1 21.2 17.1 83 1.8 N 7 11 4 6 1018.1 1018.1 0.0
22/12:00am 20.2 21.0 17.2 83 1.8 NW 9 13 5 7 1018.5 1018.5 0.0
 
Date/Time
EST
Temp
°C
App
Temp
°C
Dew
Point
°C
Rel
Hum
%
Delta-T
°C
Wind Press
QNH
hPa
Press
MSL
hPa
Rain since
9am
mm
Dir  Spd
km/h
Gust
km/h
Spd
kts
Gust
kts
21/11:30pm 20.3 21.2 17.5 84 1.7 NW 9 11 5 6 1018.6 1018.6 0.0
21/11:00pm 20.2 20.8 16.8 81 2.1 NNW 9 11 5 6 1018.5 1018.5 0.0
21/10:30pm 20.3 20.4 16.5 79 2.3 NNW 11 13 6 7 1018.3 1018.3 0.0
21/10:00pm 20.2 20.0 16.6 80 2.2 N 13 19 7 10 1018.3 1018.3 0.0
21/09:30pm 20.3 19.4 16.9 81 2.1 N 17 20 9 11 1018.3 1018.3 0.0
21/09:00pm 20.0 20.0 16.2 79 2.3 N 11 15 6 8 1018.4 1018.4 0.0
21/08:30pm 20.0 19.6 16.2 79 2.3 NNW 13 15 7 8 1018.3 1018.3 0.0
21/08:00pm 20.0 18.8 16.2 79 2.3 N 17 30 9 16 1018.0 1018.0 0.0
21/07:30pm 20.2 18.0 16.8 81 2.1 N 24 30 13 16 1017.8 1017.8 0.0
21/07:00pm 20.2 17.8 16.4 79 2.3 N 24 28 13 15 1017.5 1017.5 0.0
21/06:30pm 20.3 17.6 16.5 79 2.3 N 26 32 14 17 1017.2 1017.2 0.0
21/06:00pm 20.3 16.6 16.1 77 2.5 N 30 33 16 18 1016.8 1016.8 0.0
21/05:30pm 20.6 17.1 15.6 73 3.0 NNE 28 33 15 18 1016.3 1016.3 0.0
21/05:00pm 21.4 17.9 15.5 69 3.5 NNE 28 32 15 17 1016.0 1016.0 0.0
21/04:30pm 22.0 18.3 15.1 65 4.1 NNE 28 33 15 18 1015.8 1015.8 0.0
21/04:00pm 22.4 18.8 15.3 64 4.2 NNE 28 32 15 17 1015.7 1015.7 0.0
21/03:30pm 22.8 18.7 14.9 61 4.7 NNE 30 33 16 18 1015.6 1015.6 0.0
21/03:00pm 22.9 19.1 14.7 60 4.8 NE 28 32 15 17 1015.7 1015.7 0.0
21/02:30pm 23.3 18.8 14.8 59 5.0 NNE 32 35 17 19 1015.7 1015.7 0.0
21/02:00pm 23.5 19.6 14.5 57 5.3 NE 28 32 15 17 1016.0 1016.0 0.0
21/01:30pm 23.9 20.2 14.9 57 5.4 NNE 28 32 15 17 1016.3 1016.3 0.0
21/01:00pm 23.8 19.5 14.5 56 5.5 NNE 30 33 16 18 1016.7 1016.7 0.0
21/12:30pm 23.8 20.1 13.9 54 5.8 NE 26 32 14 17 1017.1 1017.1 0.0
21/12:00pm 24.0 20.3 13.8 53 6.0 NNE 26 30 14 16 1017.7 1017.7 0.0
21/11:30am 24.4 20.9 14.5 54 5.9 NNE 26 28 14 15 1018.2 1018.2 0.0
21/11:00am 24.4 21.2 14.2 53 6.0 NNE 24 26 13 14 1018.7 1018.7 0.0
21/10:30am 24.0 22.2 14.4 55 5.7 NE 17 19 9 10 1019.2 1019.2 0.0
21/10:00am 23.7 21.9 13.3 52 6.0 NNE 15 17 8 9 1019.5 1019.5 0.0
21/09:30am 23.7 22.1 13.8 53 5.8 NNE 15 19 8 10 1019.8 1019.8 0.0
21/09:00am 22.8 21.9 13.8 57 5.2 NNE 11 15 6 8 1019.9 1019.9 0.0
21/08:30am 20.5 19.8 13.2 63 4.2 NNW 9 17 5 9 1020.0 1020.0 0.0
21/08:00am 19.7 18.9 12.9 65 3.8 NW 9 11 5 6 1019.8 1019.8 0.0

Latest Capital City Observations: Canberra | Sydney | Melbourne | Brisbane | Adelaide | Perth | Hobart | Darwin

Other Formats:

Comma delimited format used in spreadsheet applications
http://www.bom.gov.au/fwo/IDQ60901/IDQ60901.94580.axf

JavaScript Object Notation format (JSON) in row-major order
http://www.bom.gov.au/fwo/IDQ60901/IDQ60901.94580.json